sensor_id;sensor_type;location;lat;lon;timestamp;pressure;altitude;pressure_sealevel;temperature;humidity
21357;BME280;10836;53.068;18.234;2022-12-11T00:00:20;100448.69;;;-1.59;100.00
21357;BME280;10836;53.068;18.234;2022-12-11T00:03:07;100457.34;;;-1.57;100.00
21357;BME280;10836;53.068;18.234;2022-12-11T00:05:42;100456.13;;;-1.54;100.00
21357;BME280;10836;53.068;18.234;2022-12-11T00:08:09;100454.03;;;-1.59;100.00
21357;BME280;10836;53.068;18.234;2022-12-11T00:10:37;100454.03;;;-1.59;100.00
21357;BME280;10836;53.068;18.234;2022-12-11T00:13:04;100450.72;;;-1.61;100.00
21357;BME280;10836;53.068;18.234;2022-12-11T00:15:31;100454.03;;;-1.59;100.00
21357;BME280;10836;53.068;18.234;2022-12-11T00:17:58;100456.47;;;-1.64;100.00
21357;BME280;10836;53.068;18.234;2022-12-11T00:20:25;100444.81;;;-1.50;100.00
21357;BME280;10836;53.068;18.234;2022-12-11T00:22:52;100441.69;;;-1.53;100.00
21357;BME280;10836;53.068;18.234;2022-12-11T00:25:19;100454.06;;;-1.52;100.00
21357;BME280;10836;53.068;18.234;2022-12-11T00:27:46;100445.78;;;-1.64;100.00
21357;BME280;10836;53.068;18.234;2022-12-11T00:30:13;100445.94;;;-1.72;100.00
21357;BME280;10836;53.068;18.234;2022-12-11T00:32:40;100437.91;;;-1.72;100.00
21357;BME280;10836;53.068;18.234;2022-12-11T00:35:08;100433.81;;;-1.75;100.00
21357;BME280;10836;53.068;18.234;2022-12-11T00:37:36;100429.84;;;-1.85;100.00
21357;BME280;10836;53.068;18.234;2022-12-11T00:40:04;100428.63;;;-1.83;100.00
21357;BME280;10836;53.068;18.234;2022-12-11T00:42:31;100437.88;;;-1.85;100.00
21357;BME280;10836;53.068;18.234;2022-12-11T00:44:58;100446.56;;;-1.77;100.00
21357;BME280;10836;53.068;18.234;2022-12-11T00:47:25;100444.91;;;-1.71;100.00
21357;BME280;10836;53.068;18.234;2022-12-11T00:49:52;100440.59;;;-1.79;100.00
21357;BME280;10836;53.068;18.234;2022-12-11T00:52:18;100444.88;;;-1.84;100.00
21357;BME280;10836;53.068;18.234;2022-12-11T00:54:45;100441.09;;;-1.96;100.00
21357;BME280;10836;53.068;18.234;2022-12-11T00:57:12;100425.53;;;-1.86;100.00
21357;BME280;10836;53.068;18.234;2022-12-11T00:59:39;100434.56;;;-1.87;100.00
21357;BME280;10836;53.068;18.234;2022-12-11T01:02:06;100430.13;;;-1.74;100.00
21357;BME280;10836;53.068;18.234;2022-12-11T01:04:35;100432.16;;;-1.69;100.00
21357;BME280;10836;53.068;18.234;2022-12-11T01:07:02;100425.16;;;-1.70;100.00
21357;BME280;10836;53.068;18.234;2022-12-11T01:09:29;100422.06;;;-1.80;100.00
21357;BME280;10836;53.068;18.234;2022-12-11T01:12:14;100420.56;;;-1.89;100.00
21357;BME280;10836;53.068;18.234;2022-12-11T01:14:41;100421.44;;;-1.69;100.00
21357;BME280;10836;53.068;18.234;2022-12-11T01:17:08;100421.84;;;-1.72;100.00
21357;BME280;10836;53.068;18.234;2022-12-11T01:19:35;100427.44;;;-1.67;100.00
21357;BME280;10836;53.068;18.234;2022-12-11T01:22:02;100417.53;;;-1.73;100.00
21357;BME280;10836;53.068;18.234;2022-12-11T01:24:29;100430.31;;;-1.75;100.00
21357;BME280;10836;53.068;18.234;2022-12-11T01:26:56;100428.44;;;-1.81;100.00
21357;BME280;10836;53.068;18.234;2022-12-11T01:29:23;100427.84;;;-1.77;100.00
21357;BME280;10836;53.068;18.234;2022-12-11T01:31:50;100428.84;;;-1.78;100.00
21357;BME280;10836;53.068;18.234;2022-12-11T01:34:17;100424.72;;;-1.80;100.00
21357;BME280;10836;53.068;18.234;2022-12-11T01:36:44;100424.13;;;-1.69;100.00
21357;BME280;10836;53.068;18.234;2022-12-11T01:39:11;100415.28;;;-1.70;100.00
21357;BME280;10836;53.068;18.234;2022-12-11T01:41:38;100405.41;;;-1.62;100.00
21357;BME280;10836;53.068;18.234;2022-12-11T01:45:00;100409.13;;;-1.63;100.00
21357;BME280;10836;53.068;18.234;2022-12-11T01:46:53;100413.88;;;-1.59;100.00
21357;BME280;10836;53.068;18.234;2022-12-11T01:49:24;100410.75;;;-1.69;100.00
21357;BME280;10836;53.068;18.234;2022-12-11T01:51:56;100418.97;;;-1.71;100.00
21357;BME280;10836;53.068;18.234;2022-12-11T01:54:26;100423.94;;;-1.74;100.00
21357;BME280;10836;53.068;18.234;2022-12-11T01:56:57;100436.25;;;-1.80;100.00
21357;BME280;10836;53.068;18.234;2022-12-11T01:59:28;100427.56;;;-1.88;100.00
21357;BME280;10836;53.068;18.234;2022-12-11T02:02:01;100431.09;;;-1.81;100.00
21357;BME280;10836;53.068;18.234;2022-12-11T02:04:30;100427.00;;;-1.77;100.00
21357;BME280;10836;53.068;18.234;2022-12-11T02:06:57;100429.69;;;-1.77;100.00
21357;BME280;10836;53.068;18.234;2022-12-11T02:09:26;100436.25;;;-1.73;100.00
21357;BME280;10836;53.068;18.234;2022-12-11T02:12:16;100427.63;;;-1.69;100.00
21357;BME280;10836;53.068;18.234;2022-12-11T02:17:40;100425.97;;;-1.76;100.00
21357;BME280;10836;53.068;18.234;2022-12-11T02:25:46;100418.53;;;-1.87;100.00
21357;BME280;10836;53.068;18.234;2022-12-11T02:31:04;100417.25;;;-1.91;100.00
21357;BME280;10836;53.068;18.234;2022-12-11T02:33:50;100428.28;;;-2.08;100.00
21357;BME280;10836;53.068;18.234;2022-12-11T02:36:22;100420.22;;;-2.14;100.00
21357;BME280;10836;53.068;18.234;2022-12-11T02:38:52;100415.06;;;-2.22;100.00
21357;BME280;10836;53.068;18.234;2022-12-11T02:41:20;100408.88;;;-2.23;100.00
21357;BME280;10836;53.068;18.234;2022-12-11T02:43:49;100405.81;;;-2.20;100.00
21357;BME280;10836;53.068;18.234;2022-12-11T02:46:17;100395.28;;;-2.28;100.00
21357;BME280;10836;53.068;18.234;2022-12-11T02:48:47;100395.91;;;-2.26;100.00
21357;BME280;10836;53.068;18.234;2022-12-11T02:51:21;100397.78;;;-2.20;100.00
21357;BME280;10836;53.068;18.234;2022-12-11T02:53:50;100395.03;;;-2.33;100.00
21357;BME280;10836;53.068;18.234;2022-12-11T02:56:33;100395.91;;;-2.26;100.00
21357;BME280;10836;53.068;18.234;2022-12-11T02:59:08;100387.06;;;-2.26;100.00
21357;BME280;10836;53.068;18.234;2022-12-11T03:01:37;100390.94;;;-2.29;100.00
21357;BME280;10836;53.068;18.234;2022-12-11T03:04:04;100384.19;;;-2.25;100.00
21357;BME280;10836;53.068;18.234;2022-12-11T03:06:35;100381.91;;;-2.28;100.00
21357;BME280;10836;53.068;18.234;2022-12-11T03:09:04;100374.66;;;-2.34;100.00
21357;BME280;10836;53.068;18.234;2022-12-11T03:11:31;100374.06;;;-2.29;100.00
21357;BME280;10836;53.068;18.234;2022-12-11T03:13:59;100376.63;;;-2.49;100.00
21357;BME280;10836;53.068;18.234;2022-12-11T03:19:44;100385.22;;;-2.26;100.00
21357;BME280;10836;53.068;18.234;2022-12-11T03:22:25;100369.00;;;-2.18;100.00
21357;BME280;10836;53.068;18.234;2022-12-11T03:25:02;100375.09;;;-2.30;100.00
21357;BME280;10836;53.068;18.234;2022-12-11T03:27:40;100384.09;;;-2.38;100.00
21357;BME280;10836;53.068;18.234;2022-12-11T03:30:13;100387.78;;;-2.39;100.00
21357;BME280;10836;53.068;18.234;2022-12-11T03:32:49;100374.72;;;-2.55;100.00
21357;BME280;10836;53.068;18.234;2022-12-11T03:35:22;100368.38;;;-2.54;100.00
21357;BME280;10836;53.068;18.234;2022-12-11T03:37:52;100358.88;;;-2.57;100.00
21357;BME280;10836;53.068;18.234;2022-12-11T03:40:21;100358.53;;;-2.47;100.00
21357;BME280;10836;53.068;18.234;2022-12-11T03:42:50;100353.59;;;-2.50;100.00
21357;BME280;10836;53.068;18.234;2022-12-11T03:45:19;100355.00;;;-2.54;100.00
21357;BME280;10836;53.068;18.234;2022-12-11T03:47:48;100360.75;;;-2.57;100.00
21357;BME280;10836;53.068;18.234;2022-12-11T03:50:17;100356.03;;;-2.55;100.00
21357;BME280;10836;53.068;18.234;2022-12-11T03:52:46;100356.06;;;-2.49;100.00
21357;BME280;10836;53.068;18.234;2022-12-11T03:55:16;100366.75;;;-2.49;100.00
21357;BME280;10836;53.068;18.234;2022-12-11T03:57:43;100378.81;;;-2.59;100.00
21357;BME280;10836;53.068;18.234;2022-12-11T04:00:14;100359.22;;;-2.73;100.00
21357;BME280;10836;53.068;18.234;2022-12-11T04:02:43;100357.63;;;-2.67;100.00
21357;BME280;10836;53.068;18.234;2022-12-11T04:05:10;100355.19;;;-2.62;100.00
21357;BME280;10836;53.068;18.234;2022-12-11T04:07:38;100357.06;;;-2.84;100.00
21357;BME280;10836;53.068;18.234;2022-12-11T04:10:05;100374.91;;;-2.63;100.00
21357;BME280;10836;53.068;18.234;2022-12-11T04:12:32;100372.47;;;-2.86;100.00
21357;BME280;10836;53.068;18.234;2022-12-11T04:14:59;100372.38;;;-2.72;100.00
21357;BME280;10836;53.068;18.234;2022-12-11T04:17:31;100370.75;;;-2.73;100.00
21357;BME280;10836;53.068;18.234;2022-12-11T04:20:17;100367.81;;;-2.78;100.00
21357;BME280;10836;53.068;18.234;2022-12-11T04:23:04;100366.13;;;-2.85;100.00
21357;BME280;10836;53.068;18.234;2022-12-11T04:25:50;100363.50;;;-2.79;100.00
21357;BME280;10836;53.068;18.234;2022-12-11T04:28:17;100359.66;;;-2.70;100.00
21357;BME280;10836;53.068;18.234;2022-12-11T04:30:48;100353.81;;;-2.80;100.00
21357;BME280;10836;53.068;18.234;2022-12-11T04:33:16;100345.81;;;-2.80;100.00
21357;BME280;10836;53.068;18.234;2022-12-11T04:35:42;100342.75;;;-2.77;100.00
21357;BME280;10836;53.068;18.234;2022-12-11T04:38:10;100348.03;;;-2.83;100.00
21357;BME280;10836;53.068;18.234;2022-12-11T04:40:37;100345.22;;;-2.75;100.00
21357;BME280;10836;53.068;18.234;2022-12-11T04:43:04;100349.34;;;-2.73;100.00
21357;BME280;10836;53.068;18.234;2022-12-11T04:45:31;100355.97;;;-2.69;100.00
21357;BME280;10836;53.068;18.234;2022-12-11T04:47:58;100357.47;;;-2.87;100.00
21357;BME280;10836;53.068;18.234;2022-12-11T04:50:25;100359.50;;;-2.89;100.00
21357;BME280;10836;53.068;18.234;2022-12-11T04:52:56;100357.47;;;-2.87;100.00
21357;BME280;10836;53.068;18.234;2022-12-11T04:55:23;100354.47;;;-2.78;100.00
21357;BME280;10836;53.068;18.234;2022-12-11T04:57:50;100359.38;;;-2.81;100.00
21357;BME280;10836;53.068;18.234;2022-12-11T05:00:17;100362.88;;;-2.81;100.00
21357;BME280;10836;53.068;18.234;2022-12-11T05:02:44;100362.28;;;-2.76;100.00
21357;BME280;10836;53.068;18.234;2022-12-11T05:05:11;100363.59;;;-2.93;100.00
21357;BME280;10836;53.068;18.234;2022-12-11T05:07:39;100366.56;;;-2.82;100.00
21357;BME280;10836;53.068;18.234;2022-12-11T05:10:07;100357.97;;;-2.77;100.00
21357;BME280;10836;53.068;18.234;2022-12-11T05:12:34;100370.19;;;-2.89;100.00
21357;BME280;10836;53.068;18.234;2022-12-11T05:15:01;100363.44;;;-2.85;100.00
21357;BME280;10836;53.068;18.234;2022-12-11T05:17:28;100362.47;;;-2.78;100.00
21357;BME280;10836;53.068;18.234;2022-12-11T05:19:55;100364.03;;;-2.90;100.00
21357;BME280;10836;53.068;18.234;2022-12-11T05:22:22;100344.94;;;-2.87;100.00
21357;BME280;10836;53.068;18.234;2022-12-11T05:24:48;100339.41;;;-2.85;100.00
21357;BME280;10836;53.068;18.234;2022-12-11T05:27:15;100340.59;;;-2.88;100.00
21357;BME280;10836;53.068;18.234;2022-12-11T05:29:42;100345.75;;;-2.86;100.00
21357;BME280;10836;53.068;18.234;2022-12-11T05:32:09;100342.66;;;-2.90;100.00
21357;BME280;10836;53.068;18.234;2022-12-11T05:34:36;100334.00;;;-2.92;100.00
21357;BME280;10836;53.068;18.234;2022-12-11T05:37:03;100339.06;;;-3.04;100.00
21357;BME280;10836;53.068;18.234;2022-12-11T05:39:30;100334.13;;;-3.07;100.00
21357;BME280;10836;53.068;18.234;2022-12-11T05:41:57;100322.44;;;-2.99;100.00
21357;BME280;10836;53.068;18.234;2022-12-11T05:44:24;100325.34;;;-2.94;100.00
21357;BME280;10836;53.068;18.234;2022-12-11T05:46:51;100320.41;;;-2.97;100.00
21357;BME280;10836;53.068;18.234;2022-12-11T05:49:18;100317.97;;;-2.92;100.00
21357;BME280;10836;53.068;18.234;2022-12-11T05:51:46;100311.31;;;-3.03;100.00
21357;BME280;10836;53.068;18.234;2022-12-11T05:54:13;100318.75;;;-2.98;100.00
21357;BME280;10836;53.068;18.234;2022-12-11T05:56:40;100314.97;;;-3.10;100.00
21357;BME280;10836;53.068;18.234;2022-12-11T05:59:07;100308.38;;;-3.14;100.00
21357;BME280;10836;53.068;18.234;2022-12-11T06:01:37;100321.47;;;-3.19;100.00
21357;BME280;10836;53.068;18.234;2022-12-11T06:04:06;100314.16;;;-3.11;100.00
21357;BME280;10836;53.068;18.234;2022-12-11T06:06:34;100317.91;;;-3.05;100.00
21357;BME280;10836;53.068;18.234;2022-12-11T06:09:03;100312.13;;;-3.02;100.00
21357;BME280;10836;53.068;18.234;2022-12-11T06:11:31;100306.81;;;-3.02;100.00
21357;BME280;10836;53.068;18.234;2022-12-11T06:14:00;100310.09;;;-3.00;100.00
21357;BME280;10836;53.068;18.234;2022-12-11T06:16:27;100306.81;;;-3.02;100.00
21357;BME280;10836;53.068;18.234;2022-12-11T06:18:54;100316.25;;;-3.06;100.00
21357;BME280;10836;53.068;18.234;2022-12-11T06:21:33;100311.69;;;-3.12;100.00
21357;BME280;10836;53.068;18.234;2022-12-11T06:24:02;100310.09;;;-3.07;100.00
21357;BME280;10836;53.068;18.234;2022-12-11T06:26:29;100320.31;;;-3.10;100.00
21357;BME280;10836;53.068;18.234;2022-12-11T06:28:57;100317.91;;;-3.05;100.00
21357;BME280;10836;53.068;18.234;2022-12-11T06:31:25;100321.47;;;-3.19;100.00
21357;BME280;10836;53.068;18.234;2022-12-11T06:33:52;100313.22;;;-3.24;100.00
21357;BME280;10836;53.068;18.234;2022-12-11T06:36:21;100313.72;;;-3.14;100.00
21357;BME280;10836;53.068;18.234;2022-12-11T06:38:48;100317.03;;;-3.12;100.00
21357;BME280;10836;53.068;18.234;2022-12-11T06:41:15;100320.72;;;-3.13;100.00
21357;BME280;10836;53.068;18.234;2022-12-11T06:43:43;100326.56;;;-3.24;100.00
21357;BME280;10836;53.068;18.234;2022-12-11T06:46:15;100330.94;;;-3.17;100.00
21357;BME280;10836;53.068;18.234;2022-12-11T06:48:43;100340.75;;;-3.24;100.00
21357;BME280;10836;53.068;18.234;2022-12-11T06:51:15;100339.53;;;-3.21;100.00
21357;BME280;10836;53.068;18.234;2022-12-11T06:53:42;100335.72;;;-3.33;100.00
21357;BME280;10836;53.068;18.234;2022-12-11T06:56:12;100339.81;;;-3.38;100.00
21357;BME280;10836;53.068;18.234;2022-12-11T06:58:40;100339.53;;;-3.43;100.00
21357;BME280;10836;53.068;18.234;2022-12-11T07:01:26;100346.72;;;-3.43;100.00
21357;BME280;10836;53.068;18.234;2022-12-11T07:03:56;100339.69;;;-3.51;100.00
21357;BME280;10836;53.068;18.234;2022-12-11T07:06:25;100341.34;;;-3.50;100.00
21357;BME280;10836;53.068;18.234;2022-12-11T07:08:53;100345.25;;;-3.46;100.00
21357;BME280;10836;53.068;18.234;2022-12-11T07:11:21;100336.56;;;-3.33;100.00
21357;BME280;10836;53.068;18.234;2022-12-11T07:13:48;100344.25;;;-3.45;100.00
21357;BME280;10836;53.068;18.234;2022-12-11T07:16:16;100336.00;;;-3.50;100.00
21357;BME280;10836;53.068;18.234;2022-12-11T07:18:47;100334.59;;;-3.46;100.00
21357;BME280;10836;53.068;18.234;2022-12-11T07:21:16;100326.59;;;-3.46;100.00
21357;BME280;10836;53.068;18.234;2022-12-11T07:23:42;100322.69;;;-3.43;100.00
21357;BME280;10836;53.068;18.234;2022-12-11T07:26:13;100329.03;;;-3.51;100.00
21357;BME280;10836;53.068;18.234;2022-12-11T07:28:40;100327.84;;;-3.42;100.00
21357;BME280;10836;53.068;18.234;2022-12-11T07:31:14;100322.50;;;-3.42;100.00
21357;BME280;10836;53.068;18.234;2022-12-11T07:33:42;100322.03;;;-3.52;100.00
21357;BME280;10836;53.068;18.234;2022-12-11T07:36:11;100332.84;;;-3.60;100.00
21357;BME280;10836;53.068;18.234;2022-12-11T07:38:39;100334.75;;;-3.54;100.00
21357;BME280;10836;53.068;18.234;2022-12-11T07:41:09;100328.44;;;-3.46;100.00
21357;BME280;10836;53.068;18.234;2022-12-11T07:43:37;100328.59;;;-3.54;100.00
21357;BME280;10836;53.068;18.234;2022-12-11T07:46:07;100335.22;;;-3.44;100.00
21357;BME280;10836;53.068;18.234;2022-12-11T07:48:36;100332.34;;;-3.49;100.00
21357;BME280;10836;53.068;18.234;2022-12-11T07:53:46;100328.59;;;-3.54;100.00
21357;BME280;10836;53.068;18.234;2022-12-11T07:56:15;100338.50;;;-3.48;100.00
21357;BME280;10836;53.068;18.234;2022-12-11T07:58:43;100334.22;;;-3.64;100.00
21357;BME280;10836;53.068;18.234;2022-12-11T08:03:39;100333.34;;;-3.71;100.00
21357;BME280;10836;53.068;18.234;2022-12-11T08:06:07;100334.22;;;-3.64;100.00
21357;BME280;10836;53.068;18.234;2022-12-11T08:08:33;100325.66;;;-3.59;100.00
21357;BME280;10836;53.068;18.234;2022-12-11T08:11:08;100322.34;;;-3.61;100.00
21357;BME280;10836;53.068;18.234;2022-12-11T08:13:35;100326.09;;;-3.56;100.00
21357;BME280;10836;53.068;18.234;2022-12-11T08:16:04;100316.19;;;-3.62;100.00
21357;BME280;10836;53.068;18.234;2022-12-11T08:18:32;100313.31;;;-3.60;100.00
21357;BME280;10836;53.068;18.234;2022-12-11T08:21:11;100323.91;;;-3.46;100.00
21357;BME280;10836;53.068;18.234;2022-12-11T08:23:38;100314.28;;;-3.47;100.00
21357;BME280;10836;53.068;18.234;2022-12-11T08:26:07;100325.19;;;-3.42;100.00
21357;BME280;10836;53.068;18.234;2022-12-11T08:28:34;100326.19;;;-3.43;100.00
21357;BME280;10836;53.068;18.234;2022-12-11T08:31:06;100321.06;;;-3.44;100.00
21357;BME280;10836;53.068;18.234;2022-12-11T08:33:35;100321.25;;;-3.46;100.00
21357;BME280;10836;53.068;18.234;2022-12-11T08:36:08;100324.50;;;-3.50;100.00
21357;BME280;10836;53.068;18.234;2022-12-11T08:38:36;100321.03;;;-3.51;100.00
21357;BME280;10836;53.068;18.234;2022-12-11T08:41:17;100322.66;;;-3.50;100.00
21357;BME280;10836;53.068;18.234;2022-12-11T08:43:45;100315.81;;;-3.59;100.00
21357;BME280;10836;53.068;18.234;2022-12-11T08:46:12;100302.19;;;-3.43;100.00
21357;BME280;10836;53.068;18.234;2022-12-11T08:48:41;100307.28;;;-3.48;100.00
21357;BME280;10836;53.068;18.234;2022-12-11T08:51:14;100308.78;;;-3.39;100.00
21357;BME280;10836;53.068;18.234;2022-12-11T08:53:42;100310.31;;;-3.29;100.00
21357;BME280;10836;53.068;18.234;2022-12-11T08:56:13;100319.44;;;-3.17;100.00
21357;BME280;10836;53.068;18.234;2022-12-11T08:58:42;100321.75;;;-3.36;100.00
21357;BME280;10836;53.068;18.234;2022-12-11T09:01:16;100317.09;;;-3.27;100.00
21357;BME280;10836;53.068;18.234;2022-12-11T09:03:43;100323.53;;;-3.21;100.00
21357;BME280;10836;53.068;18.234;2022-12-11T09:06:14;100317.75;;;-3.25;100.00
21357;BME280;10836;53.068;18.234;2022-12-11T09:08:42;100313.09;;;-3.38;100.00
21357;BME280;10836;53.068;18.234;2022-12-11T09:11:21;100320.63;;;-3.48;100.00
21357;BME280;10836;53.068;18.234;2022-12-11T09:13:48;100320.72;;;-3.35;100.00
21357;BME280;10836;53.068;18.234;2022-12-11T09:16:17;100332.69;;;-3.30;100.00
21357;BME280;10836;53.068;18.234;2022-12-11T09:18:49;100322.88;;;-3.23;100.00
21357;BME280;10836;53.068;18.234;2022-12-11T09:21:19;100311.94;;;-3.07;100.00
21357;BME280;10836;53.068;18.234;2022-12-11T09:23:46;100315.19;;;-3.33;100.00
21357;BME280;10836;53.068;18.234;2022-12-11T09:26:15;100304.47;;;-3.40;100.00
21357;BME280;10836;53.068;18.234;2022-12-11T09:28:43;100314.75;;;-3.37;100.00
21357;BME280;10836;53.068;18.234;2022-12-11T09:31:16;100303.81;;;-3.20;100.00
21357;BME280;10836;53.068;18.234;2022-12-11T09:33:43;100287.78;;;-3.20;100.00
21357;BME280;10836;53.068;18.234;2022-12-11T09:36:11;100295.88;;;-3.35;100.00
21357;BME280;10836;53.068;18.234;2022-12-11T09:38:38;100292.75;;;-3.17;100.00
21357;BME280;10836;53.068;18.234;2022-12-11T09:41:28;100299.28;;;-3.20;100.00
21357;BME280;10836;53.068;18.234;2022-12-11T09:44:23;100286.56;;;-3.18;100.00
21357;BME280;10836;53.068;18.234;2022-12-11T09:46:56;100278.09;;;-2.93;100.00
21357;BME280;10836;53.068;18.234;2022-12-11T09:49:34;100277.66;;;-2.97;100.00
21357;BME280;10836;53.068;18.234;2022-12-11T09:52:33;100269.19;;;-2.73;100.00
21357;BME280;10836;53.068;18.234;2022-12-11T09:55:08;100259.34;;;-2.65;98.81
21357;BME280;10836;53.068;18.234;2022-12-11T09:57:49;100257.34;;;-2.50;98.70
21357;BME280;10836;53.068;18.234;2022-12-11T10:00:25;100259.50;;;-2.26;98.50
21357;BME280;10836;53.068;18.234;2022-12-11T10:08:52;100237.25;;;-2.33;95.32
21357;BME280;10836;53.068;18.234;2022-12-11T10:14:39;100229.47;;;-2.15;94.82
21357;BME280;10836;53.068;18.234;2022-12-11T10:17:27;100226.53;;;-2.46;95.49
21357;BME280;10836;53.068;18.234;2022-12-11T10:20:02;100227.50;;;-2.54;94.64
21357;BME280;10836;53.068;18.234;2022-12-11T10:22:33;100223.03;;;-2.40;95.04
21357;BME280;10836;53.068;18.234;2022-12-11T10:25:05;100213.16;;;-2.46;95.03
21357;BME280;10836;53.068;18.234;2022-12-11T10:27:39;100216.16;;;-2.69;95.04
21357;BME280;10836;53.068;18.234;2022-12-11T10:30:13;100212.41;;;-2.81;94.24
21357;BME280;10836;53.068;18.234;2022-12-11T10:35:28;100197.81;;;-2.18;94.08
21357;BME280;10836;53.068;18.234;2022-12-11T10:38:12;100193.50;;;-1.99;93.43
21357;BME280;10836;53.068;18.234;2022-12-11T10:40:44;100188.78;;;-1.77;91.24
21357;BME280;10836;53.068;18.234;2022-12-11T10:43:11;100181.75;;;-2.05;90.65
21357;BME280;10836;53.068;18.234;2022-12-11T10:45:38;100188.38;;;-1.87;90.75
21357;BME280;10836;53.068;18.234;2022-12-11T10:48:09;100179.28;;;-2.06;91.18
21357;BME280;10836;53.068;18.234;2022-12-11T10:50:37;100173.53;;;-1.96;91.45
21357;BME280;10836;53.068;18.234;2022-12-11T10:53:04;100172.09;;;-2.06;90.65
21357;BME280;10836;53.068;18.234;2022-12-11T10:55:43;100163.66;;;-2.03;90.64
21357;BME280;10836;53.068;18.234;2022-12-11T10:58:15;100159.97;;;-1.82;90.41
21357;BME280;10836;53.068;18.234;2022-12-11T11:00:44;100159.75;;;-1.67;90.12
21357;BME280;10836;53.068;18.234;2022-12-11T11:03:42;100160.75;;;-1.55;89.23
21357;BME280;10836;53.068;18.234;2022-12-11T11:06:19;100149.84;;;-1.60;88.07
21357;BME280;10836;53.068;18.234;2022-12-11T11:08:49;100149.84;;;-1.60;89.22
21357;BME280;10836;53.068;18.234;2022-12-11T11:11:33;100147.38;;;-1.55;89.26
21357;BME280;10836;53.068;18.234;2022-12-11T11:14:15;100141.78;;;-1.33;88.09
21357;BME280;10836;53.068;18.234;2022-12-11T11:16:48;100131.69;;;-1.31;87.69
21357;BME280;10836;53.068;18.234;2022-12-11T11:19:22;100126.97;;;-1.43;88.22
21357;BME280;10836;53.068;18.234;2022-12-11T11:21:54;100123.69;;;-1.45;88.51
21357;BME280;10836;53.068;18.234;2022-12-11T11:30:01;100127.38;;;-1.32;87.04
21357;BME280;10836;53.068;18.234;2022-12-11T11:32:35;100123.47;;;-1.50;86.87
21357;BME280;10836;53.068;18.234;2022-12-11T11:35:13;100128.63;;;-1.55;87.92
21357;BME280;10836;53.068;18.234;2022-12-11T11:37:46;100124.50;;;-1.44;88.75
21357;BME280;10836;53.068;18.234;2022-12-11T11:40:24;100128.41;;;-1.47;88.11
21357;BME280;10836;53.068;18.234;2022-12-11T11:45:29;100114.63;;;-1.44;88.27
21357;BME280;10836;53.068;18.234;2022-12-11T11:48:16;100125.34;;;-1.57;88.19
21357;BME280;10836;53.068;18.234;2022-12-11T11:50:48;100116.06;;;-1.41;88.49
21357;BME280;10836;53.068;18.234;2022-12-11T11:53:26;100118.09;;;-1.37;87.76
21357;BME280;10836;53.068;18.234;2022-12-11T11:58:39;100119.38;;;-1.59;89.60
21357;BME280;10836;53.068;18.234;2022-12-11T12:01:13;100116.50;;;-1.64;89.02
21357;BME280;10836;53.068;18.234;2022-12-11T12:03:42;100116.13;;;-1.87;90.22
21357;BME280;10836;53.068;18.234;2022-12-11T12:11:26;100117.16;;;-1.88;90.55
21357;BME280;10836;53.068;18.234;2022-12-11T12:25:25;100099.00;;;-2.52;96.33
21357;BME280;10836;53.068;18.234;2022-12-11T12:33:32;100096.97;;;-2.44;95.34
21357;BME280;10836;53.068;18.234;2022-12-11T12:39:10;100097.16;;;-2.45;95.66
21357;BME280;10836;53.068;18.234;2022-12-11T12:44:19;100093.25;;;-2.56;96.29
21357;BME280;10836;53.068;18.234;2022-12-11T12:49:42;100090.81;;;-2.31;96.94
21357;BME280;10836;53.068;18.234;2022-12-11T12:52:23;100089.97;;;-2.51;97.48
21357;BME280;10836;53.068;18.234;2022-12-11T12:54:55;100084.00;;;-2.40;97.13
21357;BME280;10836;53.068;18.234;2022-12-11T12:57:56;100089.59;;;-2.28;97.03
21357;BME280;10836;53.068;18.234;2022-12-11T13:00:38;100082.19;;;-2.33;97.22
21357;BME280;10836;53.068;18.234;2022-12-11T13:08:47;100084.22;;;-2.28;98.22
21357;BME280;10836;53.068;18.234;2022-12-11T13:11:17;100083.81;;;-2.25;97.91
21357;BME280;10836;53.068;18.234;2022-12-11T13:13:47;100086.69;;;-2.40;97.15
21357;BME280;10836;53.068;18.234;2022-12-11T13:16:26;100085.88;;;-2.41;97.68
21357;BME280;10836;53.068;18.234;2022-12-11T13:19:00;100081.34;;;-2.40;97.74
21357;BME280;10836;53.068;18.234;2022-12-11T13:21:34;100085.84;;;-2.47;98.67
21357;BME280;10836;53.068;18.234;2022-12-11T13:26:48;100076.56;;;-2.58;98.79
21357;BME280;10836;53.068;18.234;2022-12-11T13:32:00;100070.84;;;-2.61;100.00
21357;BME280;10836;53.068;18.234;2022-12-11T13:34:31;100065.28;;;-2.60;100.00
21357;BME280;10836;53.068;18.234;2022-12-11T13:37:00;100064.25;;;-2.52;100.00
21357;BME280;10836;53.068;18.234;2022-12-11T13:39:30;100072.25;;;-2.72;100.00
21357;BME280;10836;53.068;18.234;2022-12-11T13:42:03;100060.94;;;-2.74;100.00
21357;BME280;10836;53.068;18.234;2022-12-11T13:44:38;100061.38;;;-2.71;100.00
21357;BME280;10836;53.068;18.234;2022-12-11T13:47:11;100060.56;;;-2.64;100.00
21357;BME280;10836;53.068;18.234;2022-12-11T13:49:42;100059.09;;;-2.54;100.00
21357;BME280;10836;53.068;18.234;2022-12-11T13:52:21;100059.31;;;-2.55;100.00
21357;BME280;10836;53.068;18.234;2022-12-11T13:54:53;100070.63;;;-2.66;100.00
21357;BME280;10836;53.068;18.234;2022-12-11T13:57:23;100078.44;;;-2.58;100.00
21357;BME280;10836;53.068;18.234;2022-12-11T13:59:57;100071.44;;;-2.59;100.00
21357;BME280;10836;53.068;18.234;2022-12-11T14:02:34;100070.66;;;-2.60;100.00
21357;BME280;10836;53.068;18.234;2022-12-11T14:05:07;100077.59;;;-2.59;100.00
21357;BME280;10836;53.068;18.234;2022-12-11T14:07:42;100072.69;;;-2.55;100.00
21357;BME280;10836;53.068;18.234;2022-12-11T14:10:17;100075.16;;;-2.54;100.00
21357;BME280;10836;53.068;18.234;2022-12-11T14:13:00;100073.09;;;-2.58;100.00
21357;BME280;10836;53.068;18.234;2022-12-11T14:15:29;100069.81;;;-2.67;100.00